Venice Center, New York
Current Conditions -  °F | °C
As of 4:56 PM on Thursday 27 Nov 2014 (Local Time) from KITH Reporting Station
Scattered Clouds Scattered Clouds  
Wind Chill: 27°   Ceiling: Unl
Heat Index: 27°   Visibility: 10mi
Dew Point: 25°   Wind: 0mph
Humidity: 92%   Direction: NA
Pressure: 30.04"   Gusts: NA
Location:  42.7818°N, 76.5651°W
Report Text: KITH 272156Z 00000KT 10SM SCT022 SCT043 M03/M04 A3004 RMK AO2 T10271038 SNE19 P0000 SLP187
Loading
Personal Weather Stations






























Interactive Weather Map New forecast layout! Learn more

10-Day Weather Forecast

Advertisements
Track Severe Weather on mobile